Time;durP1;ratioP1;P1;durP2;ratioP2;P2;SDS_P1;SDS_P2;PMS_P1;PMS_P2;Temp;Humidity;BMP_temperature;BMP_pressure;BME280_temperature;BME280_humidity;BME280_pressure;Samples;Min_cycle;Max_cycle;Signal;HPM_P1;HPM_P2
2022/12/02 00:01:36;;;;;;;;;;;6.20;97.30;;;;;;5061938;28;20004;-75
2022/12/02 00:04:09;;;;;;;;;;;6.20;97.30;;;;;;5079382;28;20015;-74
2022/12/02 00:06:35;;;;;;;;;;;6.10;97.20;;;;;;5058739;28;19917;-74
2022/12/02 00:09:19;;;;;;;;;;;6.20;97.30;;;;;;5067632;28;20251;-75
2022/12/02 00:11:45;;;;;;;;;;;6.20;97.20;;;;;;5067666;28;20456;-74
2022/12/02 00:14:20;;;;;;;;;;;6.20;97.20;;;;;;5067798;28;19970;-74
2022/12/02 00:16:46;;;;;;;;;;;6.20;97.20;;;;;;5069126;28;19973;-75
2022/12/02 00:19:11;;;;;;;;;;;6.10;97.20;;;;;;5066685;28;20254;-75
2022/12/02 00:21:37;;;;;;;;;;;6.10;97.20;;;;;;5066956;28;19912;-74
2022/12/02 00:24:02;;;;;;;;;;;6.10;97.20;;;;;;5076981;28;19977;-75
2022/12/02 00:26:28;;;;;;;;;;;6.10;97.20;;;;;;5080829;28;19966;-75
2022/12/02 00:28:53;;;;;;;;;;;6.10;97.20;;;;;;5067224;28;19912;-74
2022/12/02 00:31:19;;;;;;;;;;;6.10;97.10;;;;;;5065532;28;19913;-74
2022/12/02 00:33:44;;;;;;;;;;;6.10;97.10;;;;;;5086424;28;20016;-74
2022/12/02 00:36:10;;;;;;;;;;;6.10;97.10;;;;;;5087617;28;19912;-75
2022/12/02 00:38:35;;;;;;;;;;;6.10;97.10;;;;;;5077559;28;20335;-74
2022/12/02 00:41:01;;;;;;;;;;;6.10;97.10;;;;;;5067168;28;19913;-75
2022/12/02 00:48:55;;;;;;;;;;;6.10;97.10;;;;;;5067602;28;19975;-75
2022/12/02 00:51:20;;;;;;;;;;;6.10;97.20;;;;;;5066835;28;20382;-74
2022/12/02 00:53:46;;;;;;;;;;;6.10;97.10;;;;;;5067397;28;19970;-74
2022/12/02 00:56:11;;;;;;;;;;;6.10;97.10;;;;;;5064511;28;19916;-74
2022/12/02 00:58:37;;;;;;;;;;;6.10;97.00;;;;;;5066167;28;19913;-74
2022/12/02 01:01:03;;;;;;;;;;;6.10;97.10;;;;;;5064437;28;19999;-74
2022/12/02 01:03:28;;;;;;;;;;;6.10;97.10;;;;;;5073653;28;20344;-75
2022/12/02 01:05:54;;;;;;;;;;;6.10;97.10;;;;;;5085883;28;19916;-74
2022/12/02 01:08:24;;;;;;;;;;;6.10;97.00;;;;;;5080078;28;19913;-74
2022/12/02 01:10:49;;;;;;;;;;;6.10;97.00;;;;;;5066770;28;19969;-75
2022/12/02 01:13:15;;;;;;;;;;;6.10;97.00;;;;;;5066804;28;19916;-74
2022/12/02 01:15:40;;;;;;;;;;;6.10;97.00;;;;;;5066619;28;19916;-74
2022/12/02 01:18:06;;;;;;;;;;;6.10;97.00;;;;;;5065827;28;19912;-74
2022/12/02 01:20:31;;;;;;;;;;;6.10;97.00;;;;;;5067534;28;19963;-74
2022/12/02 01:22:57;;;;;;;;;;;6.10;97.00;;;;;;5067155;28;19947;-74
2022/12/02 01:25:22;;;;;;;;;;;6.10;97.00;;;;;;5066818;28;20280;-75
2022/12/02 01:27:48;;;;;;;;;;;6.00;97.00;;;;;;5060221;28;20361;-74
2022/12/02 01:30:14;;;;;;;;;;;6.10;97.00;;;;;;5067478;28;19909;-74
2022/12/02 01:32:39;;;;;;;;;;;6.10;97.00;;;;;;5056573;28;20281;-74
2022/12/02 01:35:05;;;;;;;;;;;6.10;97.00;;;;;;5053855;28;20294;-74
2022/12/02 01:37:30;;;;;;;;;;;6.10;97.00;;;;;;5069440;28;20027;-74
2022/12/02 01:39:56;;;;;;;;;;;6.00;97.00;;;;;;5050848;28;19920;-74
2022/12/02 01:42:21;;;;;;;;;;;6.00;97.00;;;;;;5051042;28;19912;-75
2022/12/02 01:44:47;;;;;;;;;;;6.00;97.00;;;;;;5060350;28;19912;-74
2022/12/02 01:47:12;;;;;;;;;;;6.00;97.00;;;;;;5070792;28;19958;-74
2022/12/02 01:49:38;;;;;;;;;;;6.00;97.00;;;;;;5069929;28;19931;-74
2022/12/02 01:52:03;;;;;;;;;;;6.00;97.00;;;;;;5078357;28;19934;-74
2022/12/02 01:54:31;;;;;;;;;;;6.00;97.00;;;;;;5090797;28;19920;-74
2022/12/02 01:56:57;;;;;;;;;;;6.00;97.00;;;;;;5079834;28;20268;-75
2022/12/02 01:59:22;;;;;;;;;;;6.00;97.00;;;;;;5070196;28;19912;-74
2022/12/02 02:01:48;;;;;;;;;;;6.00;97.00;;;;;;5063170;28;19975;-74
2022/12/02 02:04:13;;;;;;;;;;;6.00;97.00;;;;;;5050253;28;19919;-75
2022/12/02 02:06:44;;;;;;;;;;;6.00;97.00;;;;;;5049831;28;19921;-74
2022/12/02 02:09:09;;;;;;;;;;;6.00;97.00;;;;;;5064390;28;19917;-74
2022/12/02 02:11:35;;;;;;;;;;;6.00;97.00;;;;;;5069965;28;19932;-74
2022/12/02 02:14:03;;;;;;;;;;;6.00;97.00;;;;;;5070082;28;19974;-74
2022/12/02 02:16:29;;;;;;;;;;;6.00;97.00;;;;;;5066398;28;19956;-75
2022/12/02 02:18:54;;;;;;;;;;;6.00;97.00;;;;;;5070001;28;19958;-74
2022/12/02 02:21:22;;;;;;;;;;;6.00;97.00;;;;;;5069734;28;19917;-75
2022/12/02 02:23:47;;;;;;;;;;;6.00;97.00;;;;;;5069859;28;20437;-74
2022/12/02 02:26:13;;;;;;;;;;;6.00;97.00;;;;;;5070581;28;19978;-74
2022/12/02 02:28:38;;;;;;;;;;;6.00;97.00;;;;;;5070031;28;19916;-74
2022/12/02 02:31:04;;;;;;;;;;;6.00;97.30;;;;;;5066662;28;20479;-75
2022/12/02 02:33:31;;;;;;;;;;;6.00;97.00;;;;;;5049728;28;19971;-75
2022/12/02 02:35:56;;;;;;;;;;;6.00;97.00;;;;;;5049884;28;19924;-75
2022/12/02 02:38:22;;;;;;;;;;;6.00;97.00;;;;;;5069588;28;19913;-75
2022/12/02 02:40:49;;;;;;;;;;;6.00;97.00;;;;;;5071060;28;19954;-75
2022/12/02 02:43:15;;;;;;;;;;;6.00;97.00;;;;;;5089203;28;19912;-75
2022/12/02 02:45:41;;;;;;;;;;;6.00;97.00;;;;;;5088886;28;19920;-75
2022/12/02 02:48:08;;;;;;;;;;;6.00;97.10;;;;;;5089314;28;19912;-75
2022/12/02 02:50:35;;;;;;;;;;;5.90;97.00;;;;;;5088599;28;20463;-75
2022/12/02 02:53:00;;;;;;;;;;;5.90;97.00;;;;;;5089273;28;19991;-74
2022/12/02 02:55:26;;;;;;;;;;;5.90;97.00;;;;;;5075671;28;20003;-74
2022/12/02 02:57:51;;;;;;;;;;;5.90;97.00;;;;;;5075383;28;19916;-74
2022/12/02 03:00:18;;;;;;;;;;;5.90;97.00;;;;;;5081257;28;19924;-74
2022/12/02 03:02:44;;;;;;;;;;;5.90;97.10;;;;;;5067754;28;20440;-74
2022/12/02 03:05:10;;;;;;;;;;;5.90;97.00;;;;;;5068677;28;19913;-75
2022/12/02 03:07:35;;;;;;;;;;;5.90;97.00;;;;;;5068232;28;19920;-74
2022/12/02 03:10:02;;;;;;;;;;;5.90;97.00;;;;;;5048627;28;19952;-75
2022/12/02 03:12:27;;;;;;;;;;;5.90;97.00;;;;;;5048678;28;19921;-74
2022/12/02 03:14:53;;;;;;;;;;;5.90;97.00;;;;;;5061195;28;19962;-74
2022/12/02 03:17:19;;;;;;;;;;;5.90;97.30;;;;;;5069222;28;19909;-74
2022/12/02 03:19:44;;;;;;;;;;;5.90;97.00;;;;;;5068278;28;20540;-75
2022/12/02 03:22:10;;;;;;;;;;;5.90;97.00;;;;;;5068480;28;20066;-74
2022/12/02 03:24:36;;;;;;;;;;;5.90;97.00;;;;;;5068942;28;19926;-74
2022/12/02 03:27:03;;;;;;;;;;;5.90;97.00;;;;;;5064985;28;19958;-74
2022/12/02 03:29:28;;;;;;;;;;;5.90;97.00;;;;;;5066918;28;19920;-74
2022/12/02 03:31:55;;;;;;;;;;;5.90;97.30;;;;;;5066072;28;19913;-74
2022/12/02 03:34:20;;;;;;;;;;;5.90;97.00;;;;;;5048725;28;19913;-74
2022/12/02 03:36:46;;;;;;;;;;;5.90;97.00;;;;;;5048030;28;19913;-74
2022/12/02 03:39:11;;;;;;;;;;;5.90;97.00;;;;;;5048522;28;19913;-74
2022/12/02 03:41:37;;;;;;;;;;;5.90;97.00;;;;;;5048267;28;19944;-74
2022/12/02 03:44:03;;;;;;;;;;;5.90;97.00;;;;;;5048455;28;19917;-74
2022/12/02 03:46:28;;;;;;;;;;;5.90;97.00;;;;;;5048804;28;19920;-74
2022/12/02 03:48:55;;;;;;;;;;;5.90;97.00;;;;;;5069427;28;19917;-74
2022/12/02 03:51:20;;;;;;;;;;;5.90;97.00;;;;;;5068313;28;20410;-74
2022/12/02 03:53:46;;;;;;;;;;;5.90;97.10;;;;;;5067588;28;19921;-74
2022/12/02 03:56:12;;;;;;;;;;;5.90;97.00;;;;;;5068098;28;19999;-74
2022/12/02 03:58:38;;;;;;;;;;;5.90;97.00;;;;;;5068243;28;19908;-74
2022/12/02 04:01:04;;;;;;;;;;;5.90;97.30;;;;;;5066555;28;19909;-75
2022/12/02 04:03:30;;;;;;;;;;;5.90;97.10;;;;;;5051204;28;20239;-74
2022/12/02 04:05:56;;;;;;;;;;;5.90;97.00;;;;;;5068100;28;19912;-74
2022/12/02 04:08:21;;;;;;;;;;;5.90;97.10;;;;;;5060874;28;19959;-75
2022/12/02 04:10:47;;;;;;;;;;;5.90;97.10;;;;;;5047598;28;19966;-74
2022/12/02 04:13:12;;;;;;;;;;;5.90;97.10;;;;;;5048041;28;20031;-74
2022/12/02 04:15:37;;;;;;;;;;;5.90;97.10;;;;;;5047741;28;19916;-74
2022/12/02 04:18:03;;;;;;;;;;;5.90;97.10;;;;;;5061803;28;19920;-74
2022/12/02 04:20:28;;;;;;;;;;;5.90;97.10;;;;;;5068445;28;19975;-75
2022/12/02 04:22:54;;;;;;;;;;;5.90;97.10;;;;;;5067964;28;19916;-74
2022/12/02 04:25:19;;;;;;;;;;;5.90;97.10;;;;;;5067789;28;19912;-74
2022/12/02 04:27:45;;;;;;;;;;;5.90;97.00;;;;;;5067984;28;19977;-74
2022/12/02 04:30:10;;;;;;;;;;;5.90;97.00;;;;;;5066909;28;19913;-74
2022/12/02 04:32:36;;;;;;;;;;;5.90;97.10;;;;;;5067654;28;20493;-74
2022/12/02 04:35:01;;;;;;;;;;;5.90;97.10;;;;;;5067204;28;20519;-74
2022/12/02 04:37:27;;;;;;;;;;;5.90;97.10;;;;;;5070335;28;19999;-74
2022/12/02 04:39:52;;;;;;;;;;;5.80;97.00;;;;;;5069507;28;19917;-74
2022/12/02 04:42:18;;;;;;;;;;;5.90;97.10;;;;;;5067186;28;20300;-74
2022/12/02 04:44:43;;;;;;;;;;;5.90;97.10;;;;;;5066904;28;19957;-74
2022/12/02 04:47:09;;;;;;;;;;;5.90;97.10;;;;;;5066928;28;20472;-74
2022/12/02 04:49:34;;;;;;;;;;;5.90;97.10;;;;;;5066553;28;20412;-74
2022/12/02 04:52:00;;;;;;;;;;;5.90;97.10;;;;;;5066923;28;19958;-74
2022/12/02 04:54:25;;;;;;;;;;;5.90;97.10;;;;;;5066214;28;20644;-74
2022/12/02 04:56:51;;;;;;;;;;;5.90;97.10;;;;;;5067586;28;19923;-74
2022/12/02 04:59:16;;;;;;;;;;;5.80;97.10;;;;;;5066730;28;19913;-74
2022/12/02 05:01:41;;;;;;;;;;;5.90;97.10;;;;;;5064788;28;19912;-74
2022/12/02 05:04:07;;;;;;;;;;;5.80;97.10;;;;;;5066173;28;19932;-74
2022/12/02 05:06:32;;;;;;;;;;;5.90;97.10;;;;;;5066563;28;19912;-74
2022/12/02 05:08:58;;;;;;;;;;;5.80;97.00;;;;;;5066619;28;19912;-74
2022/12/02 05:11:23;;;;;;;;;;;5.80;97.10;;;;;;5065999;28;19958;-74
2022/12/02 05:13:49;;;;;;;;;;;5.80;97.10;;;;;;5065005;28;19985;-74
2022/12/02 05:16:14;;;;;;;;;;;5.80;97.10;;;;;;5065230;28;19920;-74
2022/12/02 05:18:40;;;;;;;;;;;5.80;97.10;;;;;;5066793;28;19999;-74
2022/12/02 05:21:05;;;;;;;;;;;5.80;97.10;;;;;;5066564;28;19912;-74
2022/12/02 05:23:31;;;;;;;;;;;5.80;97.10;;;;;;5067414;28;19947;-74
2022/12/02 05:25:56;;;;;;;;;;;5.80;97.10;;;;;;5065428;28;19917;-75
2022/12/02 05:28:21;;;;;;;;;;;5.80;97.10;;;;;;5066467;28;19912;-74
2022/12/02 05:30:47;;;;;;;;;;;5.80;97.10;;;;;;5065867;28;19912;-74
2022/12/02 05:33:12;;;;;;;;;;;5.80;97.10;;;;;;5047010;28;20380;-74
2022/12/02 05:35:38;;;;;;;;;;;5.80;97.10;;;;;;5045893;28;19916;-74
2022/12/02 05:38:03;;;;;;;;;;;5.80;97.10;;;;;;5060147;28;20556;-74
2022/12/02 05:40:29;;;;;;;;;;;5.80;97.10;;;;;;5065536;28;20003;-75
2022/12/02 05:42:54;;;;;;;;;;;5.80;97.10;;;;;;5066008;28;20011;-74
2022/12/02 05:45:21;;;;;;;;;;;5.80;97.20;;;;;;5059500;28;20282;-73
2022/12/02 05:47:48;;;;;;;;;;;5.80;97.20;;;;;;5066598;28;20643;-74
2022/12/02 05:50:14;;;;;;;;;;;5.80;97.20;;;;;;5065058;28;19956;-73
2022/12/02 05:52:39;;;;;;;;;;;5.80;97.10;;;;;;5065117;28;19951;-73
2022/12/02 05:55:12;;;;;;;;;;;5.80;97.20;;;;;;5079104;28;19994;-74
2022/12/02 05:57:38;;;;;;;;;;;5.80;97.20;;;;;;5069890;28;20014;-74
2022/12/02 06:00:12;;;;;;;;;;;5.80;97.20;;;;;;5064651;28;20024;-74
2022/12/02 06:02:39;;;;;;;;;;;5.80;97.20;;;;;;5062349;28;19912;-74
2022/12/02 06:05:16;;;;;;;;;;;5.80;97.20;;;;;;5075674;28;19996;-74
2022/12/02 06:07:42;;;;;;;;;;;5.80;97.20;;;;;;5064689;28;20469;-74
2022/12/02 06:10:16;;;;;;;;;;;5.80;97.20;;;;;;5046344;28;20003;-74
2022/12/02 06:12:42;;;;;;;;;;;5.80;97.20;;;;;;5054463;28;20397;-74
2022/12/02 06:15:12;;;;;;;;;;;5.80;97.20;;;;;;5065890;28;19916;-74
2022/12/02 06:17:38;;;;;;;;;;;5.80;97.20;;;;;;5066659;28;20373;-74
2022/12/02 06:20:04;;;;;;;;;;;5.80;97.20;;;;;;5071110;28;19913;-74
2022/12/02 06:22:30;;;;;;;;;;;5.80;97.20;;;;;;5068584;28;19916;-74
2022/12/02 06:24:57;;;;;;;;;;;5.80;97.20;;;;;;5070132;28;19913;-74
2022/12/02 06:27:22;;;;;;;;;;;5.80;97.20;;;;;;5068661;28;19912;-74
2022/12/02 06:30:01;;;;;;;;;;;5.80;97.20;;;;;;5069722;28;19920;-74
2022/12/02 06:32:35;;;;;;;;;;;5.80;97.20;;;;;;5069913;28;20007;-73
2022/12/02 06:35:03;;;;;;;;;;;5.80;97.20;;;;;;5055270;28;20084;-74
2022/12/02 06:37:29;;;;;;;;;;;5.80;97.20;;;;;;5069812;28;19912;-74
2022/12/02 06:39:55;;;;;;;;;;;5.80;97.20;;;;;;5049804;28;19919;-74
2022/12/02 06:42:34;;;;;;;;;;;5.80;97.20;;;;;;5058640;28;19919;-74
2022/12/02 06:45:09;;;;;;;;;;;5.80;97.20;;;;;;5069784;28;19912;-74
2022/12/02 06:47:35;;;;;;;;;;;5.80;97.20;;;;;;5069824;28;19991;-73
2022/12/02 06:50:03;;;;;;;;;;;5.80;97.20;;;;;;5068943;28;20077;-74
2022/12/02 06:52:31;;;;;;;;;;;5.80;97.20;;;;;;5080818;28;19912;-74
2022/12/02 06:54:57;;;;;;;;;;;5.80;97.20;;;;;;5089566;28;20432;-74
2022/12/02 06:57:22;;;;;;;;;;;5.70;97.20;;;;;;5075161;28;19919;-74
2022/12/02 06:59:50;;;;;;;;;;;5.80;97.20;;;;;;5069196;28;20268;-74
2022/12/02 07:02:29;;;;;;;;;;;5.80;97.20;;;;;;5069712;28;19909;-74
2022/12/02 07:04:55;;;;;;;;;;;5.80;97.20;;;;;;5069195;28;19986;-74
2022/12/02 07:07:22;;;;;;;;;;;5.70;97.40;;;;;;5061962;28;19918;-74
2022/12/02 07:09:51;;;;;;;;;;;5.70;97.10;;;;;;5068801;28;19913;-74
2022/12/02 07:12:35;;;;;;;;;;;5.70;97.10;;;;;;5069292;28;20656;-73
2022/12/02 07:15:19;;;;;;;;;;;5.80;97.20;;;;;;5069078;28;19917;-74
2022/12/02 07:17:45;;;;;;;;;;;5.70;97.20;;;;;;5079666;28;19920;-74
2022/12/02 07:20:10;;;;;;;;;;;5.70;97.20;;;;;;5089007;28;20364;-74
2022/12/02 07:22:40;;;;;;;;;;;5.70;97.10;;;;;;5089187;28;19912;-74
2022/12/02 07:25:06;;;;;;;;;;;5.70;97.10;;;;;;5087543;28;19912;-74
2022/12/02 07:27:33;;;;;;;;;;;5.70;97.20;;;;;;5072751;28;19912;-74
2022/12/02 07:30:00;;;;;;;;;;;5.70;97.20;;;;;;5068448;28;19912;-73
2022/12/02 07:32:25;;;;;;;;;;;5.70;97.10;;;;;;5068796;28;19924;-73
2022/12/02 07:34:51;;;;;;;;;;;5.70;97.10;;;;;;5083439;28;19924;-73
2022/12/02 07:37:16;;;;;;;;;;;5.70;97.10;;;;;;5089219;28;19981;-74
2022/12/02 07:39:42;;;;;;;;;;;5.70;97.10;;;;;;5069960;28;19992;-74
2022/12/02 07:42:07;;;;;;;;;;;5.70;97.10;;;;;;5068789;28;19912;-74
2022/12/02 07:44:33;;;;;;;;;;;5.70;97.10;;;;;;5067435;28;19917;-74
2022/12/02 07:46:58;;;;;;;;;;;5.70;97.10;;;;;;5068575;28;20022;-74
2022/12/02 07:49:24;;;;;;;;;;;5.70;97.10;;;;;;5068256;28;20273;-74
2022/12/02 07:51:49;;;;;;;;;;;5.70;97.10;;;;;;5067577;28;20521;-74
2022/12/02 07:54:15;;;;;;;;;;;5.70;97.10;;;;;;5068325;28;19919;-75
2022/12/02 07:56:41;;;;;;;;;;;5.70;97.10;;;;;;5068150;28;19923;-74
2022/12/02 07:59:06;;;;;;;;;;;5.70;97.10;;;;;;5080008;28;19977;-74
2022/12/02 08:01:32;;;;;;;;;;;5.70;97.10;;;;;;5069800;28;19919;-74
2022/12/02 08:03:57;;;;;;;;;;;5.70;97.10;;;;;;5068324;28;20742;-74
2022/12/02 08:06:23;;;;;;;;;;;5.70;97.10;;;;;;5068252;28;19912;-74
2022/12/02 08:08:49;;;;;;;;;;;5.70;97.10;;;;;;5057397;28;19909;-74
2022/12/02 08:11:14;;;;;;;;;;;5.70;97.10;;;;;;5047916;28;19917;-74
2022/12/02 08:13:40;;;;;;;;;;;5.70;97.10;;;;;;5046625;28;19974;-74
2022/12/02 08:16:07;;;;;;;;;;;5.80;97.10;;;;;;5061808;28;20007;-74
2022/12/02 08:18:33;;;;;;;;;;;5.70;97.10;;;;;;5066992;28;19913;-74
2022/12/02 08:20:59;;;;;;;;;;;5.70;97.10;;;;;;5067322;28;20277;-74
2022/12/02 08:23:24;;;;;;;;;;;5.70;97.10;;;;;;5067404;28;20147;-74
2022/12/02 08:25:50;;;;;;;;;;;5.70;97.10;;;;;;5067383;28;20007;-74
2022/12/02 08:28:15;;;;;;;;;;;5.70;97.10;;;;;;5065858;28;19912;-74
2022/12/02 08:30:41;;;;;;;;;;;5.70;97.10;;;;;;5066604;28;20628;-75
2022/12/02 08:33:06;;;;;;;;;;;5.70;97.10;;;;;;5067266;28;20011;-74
2022/12/02 08:35:32;;;;;;;;;;;5.70;97.10;;;;;;5066628;28;20357;-75
2022/12/02 08:37:57;;;;;;;;;;;5.70;97.00;;;;;;5063281;28;19919;-74
2022/12/02 08:40:23;;;;;;;;;;;5.70;97.10;;;;;;5046329;28;19937;-74
2022/12/02 08:42:48;;;;;;;;;;;5.70;97.00;;;;;;5059648;28;19944;-74
2022/12/02 08:45:14;;;;;;;;;;;5.70;97.00;;;;;;5067036;28;19915;-74
2022/12/02 08:47:40;;;;;;;;;;;5.70;97.00;;;;;;5066297;28;19995;-73
2022/12/02 08:50:05;;;;;;;;;;;5.70;97.00;;;;;;5086307;28;20362;-74
2022/12/02 08:52:31;;;;;;;;;;;5.70;97.30;;;;;;5087715;28;19912;-74
2022/12/02 08:54:57;;;;;;;;;;;5.70;97.00;;;;;;5087436;28;19916;-74
2022/12/02 08:57:23;;;;;;;;;;;5.70;97.00;;;;;;5073036;28;19912;-74
2022/12/02 08:59:49;;;;;;;;;;;5.70;97.00;;;;;;5066772;28;20456;-74
2022/12/02 09:02:14;;;;;;;;;;;5.70;97.00;;;;;;5067038;28;19948;-74
2022/12/02 09:04:39;;;;;;;;;;;5.70;97.00;;;;;;5068625;28;19917;-74
2022/12/02 09:07:05;;;;;;;;;;;5.70;97.00;;;;;;5069348;28;19912;-74
2022/12/02 09:09:30;;;;;;;;;;;5.70;97.30;;;;;;5066709;28;19971;-75
2022/12/02 09:11:56;;;;;;;;;;;5.70;97.00;;;;;;5067017;28;19920;-74
2022/12/02 09:14:21;;;;;;;;;;;5.70;97.00;;;;;;5067266;28;19912;-73
2022/12/02 09:16:47;;;;;;;;;;;5.70;97.00;;;;;;5066976;28;19978;-74
2022/12/02 09:19:13;;;;;;;;;;;5.70;97.00;;;;;;5067380;28;19919;-74
2022/12/02 09:21:38;;;;;;;;;;;5.70;97.00;;;;;;5073700;28;19912;-74
2022/12/02 09:24:04;;;;;;;;;;;5.70;97.00;;;;;;5087449;28;20319;-74
2022/12/02 09:26:30;;;;;;;;;;;5.70;96.90;;;;;;5079826;28;19944;-74
2022/12/02 09:28:55;;;;;;;;;;;5.70;96.90;;;;;;5066923;28;20003;-74
2022/12/02 09:31:21;;;;;;;;;;;5.70;96.90;;;;;;5066558;28;19913;-74
2022/12/02 09:33:46;;;;;;;;;;;5.70;96.90;;;;;;5066994;28;19916;-74
2022/12/02 09:36:11;;;;;;;;;;;5.70;96.90;;;;;;5066656;28;19916;-74
2022/12/02 09:38:37;;;;;;;;;;;5.70;96.90;;;;;;5061128;28;19913;-74
2022/12/02 09:41:03;;;;;;;;;;;5.70;96.90;;;;;;5086776;28;19935;-75
2022/12/02 09:43:29;;;;;;;;;;;5.80;96.90;;;;;;5051101;28;19912;-74
2022/12/02 09:45:54;;;;;;;;;;;5.80;96.90;;;;;;5058992;28;20531;-74
2022/12/02 09:48:20;;;;;;;;;;;5.80;96.90;;;;;;5066726;28;19912;-75
2022/12/02 09:50:46;;;;;;;;;;;5.80;96.90;;;;;;5067148;28;20509;-74
2022/12/02 09:53:12;;;;;;;;;;;5.80;96.90;;;;;;5070887;28;19912;-74
2022/12/02 09:55:37;;;;;;;;;;;5.80;96.90;;;;;;5086188;28;19920;-74
2022/12/02 09:58:16;;;;;;;;;;;5.70;96.80;;;;;;5070431;28;19919;-74
2022/12/02 10:00:42;;;;;;;;;;;5.80;96.80;;;;;;5070099;28;19912;-75
2022/12/02 10:03:09;;;;;;;;;;;5.80;96.80;;;;;;5070485;28;19920;-74
2022/12/02 10:05:35;;;;;;;;;;;5.80;96.80;;;;;;5070499;28;19919;-74
2022/12/02 10:08:01;;;;;;;;;;;5.80;96.80;;;;;;5070474;28;19915;-74
2022/12/02 10:10:30;;;;;;;;;;;5.80;96.80;;;;;;5070027;28;19914;-75
2022/12/02 10:12:56;;;;;;;;;;;5.80;96.80;;;;;;5063317;28;19917;-74
2022/12/02 10:15:27;;;;;;;;;;;5.80;96.80;;;;;;5050256;28;19923;-74
2022/12/02 10:17:53;;;;;;;;;;;5.80;96.80;;;;;;5063734;28;19912;-74
2022/12/02 10:20:23;;;;;;;;;;;5.80;96.80;;;;;;5069776;28;19912;-74
2022/12/02 10:23:07;;;;;;;;;;;5.80;96.80;;;;;;5070191;28;19912;-74
2022/12/02 10:25:33;;;;;;;;;;;5.80;96.80;;;;;;5069759;28;19970;-74
2022/12/02 10:27:58;;;;;;;;;;;5.80;96.80;;;;;;5079917;28;19960;-74
2022/12/02 10:30:25;;;;;;;;;;;5.80;96.80;;;;;;5081090;28;19912;-74
2022/12/02 10:33:01;;;;;;;;;;;5.80;96.80;;;;;;5069382;28;20392;-74
2022/12/02 10:35:28;;;;;;;;;;;5.80;96.80;;;;;;5069669;28;19939;-74
2022/12/02 10:37:53;;;;;;;;;;;5.80;96.80;;;;;;5065031;28;19913;-74
2022/12/02 10:40:20;;;;;;;;;;;5.80;96.80;;;;;;5049760;28;19974;-74
2022/12/02 10:42:46;;;;;;;;;;;5.80;96.70;;;;;;5050011;28;20609;-74
2022/12/02 10:45:22;;;;;;;;;;;5.80;96.70;;;;;;5089380;28;20037;-74
2022/12/02 10:47:49;;;;;;;;;;;5.80;96.70;;;;;;5090089;28;19919;-74
2022/12/02 10:50:19;;;;;;;;;;;5.80;96.70;;;;;;5089323;28;20678;-74
2022/12/02 10:52:49;;;;;;;;;;;5.80;96.70;;;;;;5090377;28;19916;-74
2022/12/02 10:55:16;;;;;;;;;;;5.80;96.70;;;;;;5089938;28;20411;-74
2022/12/02 10:57:42;;;;;;;;;;;5.80;96.70;;;;;;5072726;28;19913;-74
2022/12/02 11:00:28;;;;;;;;;;;5.80;96.70;;;;;;5067822;28;19921;-75
2022/12/02 11:02:57;;;;;;;;;;;5.80;96.70;;;;;;5068345;28;19909;-74
2022/12/02 11:05:22;;;;;;;;;;;5.80;96.70;;;;;;5068266;28;19966;-74
2022/12/02 11:07:51;;;;;;;;;;;5.80;96.60;;;;;;5069223;28;19916;-75
2022/12/02 11:10:20;;;;;;;;;;;5.80;96.60;;;;;;5068971;28;19919;-75
2022/12/02 11:12:49;;;;;;;;;;;5.80;96.70;;;;;;5068987;28;19920;-75
2022/12/02 11:15:33;;;;;;;;;;;5.80;96.60;;;;;;5069288;28;19935;-75
2022/12/02 11:17:59;;;;;;;;;;;5.80;96.60;;;;;;5069950;28;19916;-74
2022/12/02 11:20:29;;;;;;;;;;;5.80;96.60;;;;;;5068239;28;19915;-75
2022/12/02 11:22:57;;;;;;;;;;;5.80;96.60;;;;;;5088588;28;19908;-74
2022/12/02 11:25:41;;;;;;;;;;;5.80;96.60;;;;;;5089068;28;20362;-74
2022/12/02 11:28:25;;;;;;;;;;;5.80;96.60;;;;;;5048993;28;20024;-74
2022/12/02 11:31:10;;;;;;;;;;;5.80;96.60;;;;;;5060847;28;19913;-74
2022/12/02 11:33:42;;;;;;;;;;;5.80;96.60;;;;;;5068773;28;19955;-74
2022/12/02 11:36:07;;;;;;;;;;;5.80;96.60;;;;;;5068821;28;19916;-74
2022/12/02 11:38:44;;;;;;;;;;;5.80;96.50;;;;;;5058300;28;19924;-74
2022/12/02 11:41:09;;;;;;;;;;;5.80;96.50;;;;;;5048343;28;19959;-74
2022/12/02 11:43:58;;;;;;;;;;;5.90;96.50;;;;;;5066476;28;19917;-74
2022/12/02 11:46:54;;;;;;;;;;;5.80;96.50;;;;;;5065801;28;19920;-74
2022/12/02 11:49:35;;;;;;;;;;;5.80;96.50;;;;;;5061517;28;20026;-74
2022/12/02 11:52:10;;;;;;;;;;;5.90;96.50;;;;;;5075871;28;19919;-74
2022/12/02 11:54:37;;;;;;;;;;;5.90;96.50;;;;;;5087236;28;19945;-74
2022/12/02 11:57:03;;;;;;;;;;;5.90;96.50;;;;;;5075636;28;19943;-74
2022/12/02 11:59:28;;;;;;;;;;;5.80;96.50;;;;;;5066903;28;19952;-75
2022/12/02 12:02:06;;;;;;;;;;;5.90;96.50;;;;;;5066442;28;20372;-74
2022/12/02 12:04:32;;;;;;;;;;;5.90;96.50;;;;;;5065983;28;19919;-75
2022/12/02 12:06:58;;;;;;;;;;;5.90;96.50;;;;;;5058174;28;20586;-74
2022/12/02 12:09:25;;;;;;;;;;;5.90;96.50;;;;;;5066722;28;19916;-74
2022/12/02 12:12:09;;;;;;;;;;;5.90;96.50;;;;;;5065039;28;19921;-74
2022/12/02 12:15:01;;;;;;;;;;;5.90;96.50;;;;;;5066164;28;19916;-74
2022/12/02 12:17:48;;;;;;;;;;;5.90;96.50;;;;;;5064247;28;20003;-74
2022/12/02 12:20:13;;;;;;;;;;;5.90;96.40;;;;;;5066193;28;20541;-75
2022/12/02 12:22:39;;;;;;;;;;;5.90;96.40;;;;;;5070816;28;19999;-74
2022/12/02 12:25:23;;;;;;;;;;;5.90;96.40;;;;;;5085485;28;19920;-74
2022/12/02 12:27:49;;;;;;;;;;;5.90;96.40;;;;;;5069173;28;19991;-74
2022/12/02 12:30:14;;;;;;;;;;;5.90;96.40;;;;;;5066525;28;20019;-74
2022/12/02 12:32:40;;;;;;;;;;;5.90;96.40;;;;;;5066687;28;19916;-74
2022/12/02 12:35:05;;;;;;;;;;;5.90;96.40;;;;;;5066224;28;20615;-74
2022/12/02 12:37:31;;;;;;;;;;;5.90;96.40;;;;;;5066420;28;19994;-74
2022/12/02 12:39:56;;;;;;;;;;;5.90;96.30;;;;;;5046272;28;19990;-74
2022/12/02 12:42:22;;;;;;;;;;;5.90;96.40;;;;;;5046772;28;20277;-74
2022/12/02 12:44:47;;;;;;;;;;;5.90;96.40;;;;;;5046446;28;20000;-74
2022/12/02 12:47:13;;;;;;;;;;;5.90;96.40;;;;;;5046757;28;19919;-74
2022/12/02 12:49:38;;;;;;;;;;;5.90;96.40;;;;;;5046383;28;20386;-74
2022/12/02 12:52:04;;;;;;;;;;;5.90;96.40;;;;;;5073312;28;19916;-75
2022/12/02 12:54:29;;;;;;;;;;;5.90;96.40;;;;;;5066656;28;19974;-74
2022/12/02 12:56:55;;;;;;;;;;;5.90;96.40;;;;;;5066582;28;20598;-74
2022/12/02 12:59:20;;;;;;;;;;;5.90;96.40;;;;;;5066108;28;20019;-74
2022/12/02 13:01:46;;;;;;;;;;;5.90;96.30;;;;;;5046429;28;19944;-74
2022/12/02 13:04:12;;;;;;;;;;;5.90;96.40;;;;;;5045920;28;19919;-74
2022/12/02 13:06:38;;;;;;;;;;;5.90;96.40;;;;;;5067002;28;19916;-74
2022/12/02 13:09:04;;;;;;;;;;;5.90;96.40;;;;;;5064674;28;19920;-74
2022/12/02 13:11:29;;;;;;;;;;;5.90;96.40;;;;;;5065462;28;20436;-74
2022/12/02 13:13:55;;;;;;;;;;;5.90;96.30;;;;;;5065590;28;19916;-74
2022/12/02 13:16:20;;;;;;;;;;;5.90;96.40;;;;;;5066033;28;19916;-74
2022/12/02 13:18:46;;;;;;;;;;;5.80;96.30;;;;;;5066555;28;20280;-74
2022/12/02 13:21:11;;;;;;;;;;;5.90;96.30;;;;;;5072110;28;19916;-75
2022/12/02 13:23:37;;;;;;;;;;;5.90;96.30;;;;;;5086932;28;19939;-74
2022/12/02 13:26:02;;;;;;;;;;;5.80;96.30;;;;;;5078009;28;20440;-74
2022/12/02 13:28:28;;;;;;;;;;;5.90;96.30;;;;;;5066044;28;19999;-74
2022/12/02 13:30:54;;;;;;;;;;;5.80;96.30;;;;;;5065753;28;20555;-74
2022/12/02 13:33:20;;;;;;;;;;;5.90;96.40;;;;;;5066984;28;19920;-75
2022/12/02 13:35:46;;;;;;;;;;;5.80;96.30;;;;;;5066118;28;19928;-74
2022/12/02 13:38:11;;;;;;;;;;;5.80;96.30;;;;;;5060911;28;19935;-75
2022/12/02 13:40:37;;;;;;;;;;;5.80;96.30;;;;;;5078372;28;19920;-74
2022/12/02 13:43:02;;;;;;;;;;;5.80;96.30;;;;;;5046663;28;20546;-75
2022/12/02 13:45:29;;;;;;;;;;;5.80;96.30;;;;;;5056485;28;19938;-75
2022/12/02 13:47:54;;;;;;;;;;;5.80;96.30;;;;;;5073669;28;19920;-74
2022/12/02 13:50:20;;;;;;;;;;;5.80;96.30;;;;;;5086185;28;19919;-74
2022/12/02 13:52:45;;;;;;;;;;;5.80;96.30;;;;;;5073348;28;19919;-74
2022/12/02 13:55:11;;;;;;;;;;;5.80;96.30;;;;;;5066333;28;20348;-74
2022/12/02 13:57:36;;;;;;;;;;;5.80;96.30;;;;;;5065469;28;19912;-75
2022/12/02 14:00:02;;;;;;;;;;;5.80;96.30;;;;;;5065107;28;20438;-75
2022/12/02 14:02:28;;;;;;;;;;;5.80;96.30;;;;;;5075455;28;19922;-74
2022/12/02 14:04:53;;;;;;;;;;;5.80;96.30;;;;;;5085735;28;20025;-75
2022/12/02 14:07:19;;;;;;;;;;;5.80;96.30;;;;;;5086101;28;19969;-74
2022/12/02 14:09:44;;;;;;;;;;;5.80;96.30;;;;;;5065386;28;19913;-75
2022/12/02 14:12:12;;;;;;;;;;;5.80;96.30;;;;;;5055934;28;20556;-75
2022/12/02 14:14:37;;;;;;;;;;;5.80;96.20;;;;;;5043735;28;19954;-75
2022/12/02 14:17:03;;;;;;;;;;;5.80;96.30;;;;;;5054115;28;20330;-74
2022/12/02 14:19:28;;;;;;;;;;;5.80;96.20;;;;;;5063475;28;20680;-74
2022/12/02 14:21:53;;;;;;;;;;;5.80;96.20;;;;;;5064127;28;19920;-74
2022/12/02 14:24:19;;;;;;;;;;;5.80;96.20;;;;;;5062964;28;19912;-74
2022/12/02 14:26:44;;;;;;;;;;;5.80;96.20;;;;;;5064953;28;20360;-74
2022/12/02 14:29:10;;;;;;;;;;;5.80;96.20;;;;;;5063735;28;20007;-74
2022/12/02 14:31:35;;;;;;;;;;;5.80;96.20;;;;;;5068033;28;20606;-74
2022/12/02 14:34:01;;;;;;;;;;;5.80;96.20;;;;;;5065302;28;20017;-74
2022/12/02 14:36:26;;;;;;;;;;;5.80;96.20;;;;;;5064934;28;20019;-74